sensor_id;sensor_type;location;lat;lon;timestamp;P1;durP1;ratioP1;P2;durP2;ratioP2
75486;SDS011;65009;44.762;21.516;2022-11-25T00:00:52;29.07;;;15.60;;
75486;SDS011;65009;44.762;21.516;2022-11-25T00:03:19;31.33;;;15.60;;
75486;SDS011;65009;44.762;21.516;2022-11-25T00:05:45;28.00;;;15.10;;
75486;SDS011;65009;44.762;21.516;2022-11-25T00:08:11;29.50;;;18.87;;
75486;SDS011;65009;44.762;21.516;2022-11-25T00:10:37;27.30;;;15.57;;
75486;SDS011;65009;44.762;21.516;2022-11-25T00:13:03;23.23;;;14.77;;
75486;SDS011;65009;44.762;21.516;2022-11-25T00:15:30;25.23;;;15.30;;
75486;SDS011;65009;44.762;21.516;2022-11-25T00:17:56;30.43;;;16.43;;
75486;SDS011;65009;44.762;21.516;2022-11-25T00:20:22;33.67;;;19.37;;
75486;SDS011;65009;44.762;21.516;2022-11-25T00:22:48;38.20;;;23.07;;
75486;SDS011;65009;44.762;21.516;2022-11-25T00:25:14;34.80;;;21.53;;
75486;SDS011;65009;44.762;21.516;2022-11-25T00:27:40;26.63;;;16.20;;
75486;SDS011;65009;44.762;21.516;2022-11-25T00:30:07;23.23;;;14.53;;
75486;SDS011;65009;44.762;21.516;2022-11-25T00:32:33;24.77;;;15.63;;
75486;SDS011;65009;44.762;21.516;2022-11-25T00:34:59;22.07;;;13.83;;
75486;SDS011;65009;44.762;21.516;2022-11-25T00:37:25;28.07;;;16.73;;
75486;SDS011;65009;44.762;21.516;2022-11-25T00:39:51;23.53;;;15.20;;
75486;SDS011;65009;44.762;21.516;2022-11-25T00:42:17;24.20;;;15.33;;
75486;SDS011;65009;44.762;21.516;2022-11-25T00:45:02;26.20;;;16.23;;
75486;SDS011;65009;44.762;21.516;2022-11-25T00:47:29;31.20;;;16.73;;
75486;SDS011;65009;44.762;21.516;2022-11-25T00:49:55;32.97;;;19.73;;
75486;SDS011;65009;44.762;21.516;2022-11-25T00:52:22;32.47;;;17.50;;
75486;SDS011;65009;44.762;21.516;2022-11-25T00:54:49;36.37;;;20.27;;
75486;SDS011;65009;44.762;21.516;2022-11-25T00:57:16;32.53;;;18.77;;
75486;SDS011;65009;44.762;21.516;2022-11-25T00:59:42;35.93;;;20.07;;
75486;SDS011;65009;44.762;21.516;2022-11-25T01:02:09;30.07;;;17.30;;
75486;SDS011;65009;44.762;21.516;2022-11-25T01:04:35;25.07;;;15.43;;
75486;SDS011;65009;44.762;21.516;2022-11-25T01:07:02;23.93;;;14.53;;
75486;SDS011;65009;44.762;21.516;2022-11-25T01:09:28;22.77;;;14.57;;
75486;SDS011;65009;44.762;21.516;2022-11-25T01:11:55;23.20;;;14.57;;
75486;SDS011;65009;44.762;21.516;2022-11-25T01:14:21;21.90;;;14.03;;
75486;SDS011;65009;44.762;21.516;2022-11-25T01:16:48;22.07;;;14.00;;
75486;SDS011;65009;44.762;21.516;2022-11-25T01:19:15;23.07;;;14.43;;
75486;SDS011;65009;44.762;21.516;2022-11-25T01:21:42;21.00;;;13.70;;
75486;SDS011;65009;44.762;21.516;2022-11-25T01:24:09;24.80;;;16.20;;
75486;SDS011;65009;44.762;21.516;2022-11-25T01:26:36;27.57;;;16.90;;
75486;SDS011;65009;44.762;21.516;2022-11-25T01:29:04;25.60;;;16.30;;
75486;SDS011;65009;44.762;21.516;2022-11-25T01:31:32;25.97;;;16.23;;
75486;SDS011;65009;44.762;21.516;2022-11-25T01:33:59;28.47;;;16.87;;
75486;SDS011;65009;44.762;21.516;2022-11-25T01:36:26;31.90;;;18.60;;
75486;SDS011;65009;44.762;21.516;2022-11-25T01:38:53;27.93;;;16.80;;
75486;SDS011;65009;44.762;21.516;2022-11-25T01:41:21;30.57;;;17.10;;
75486;SDS011;65009;44.762;21.516;2022-11-25T01:49:18;28.27;;;16.43;;
75486;SDS011;65009;44.762;21.516;2022-11-25T01:51:48;27.57;;;16.77;;
75486;SDS011;65009;44.762;21.516;2022-11-25T01:54:16;25.20;;;16.97;;
75486;SDS011;65009;44.762;21.516;2022-11-25T01:56:47;25.80;;;16.27;;
75486;SDS011;65009;44.762;21.516;2022-11-25T01:59:14;28.63;;;17.67;;
75486;SDS011;65009;44.762;21.516;2022-11-25T02:01:41;33.17;;;20.17;;
75486;SDS011;65009;44.762;21.516;2022-11-25T02:04:07;32.37;;;21.20;;
75486;SDS011;65009;44.762;21.516;2022-11-25T02:06:35;37.97;;;22.90;;
75486;SDS011;65009;44.762;21.516;2022-11-25T02:09:05;47.13;;;29.20;;
75486;SDS011;65009;44.762;21.516;2022-11-25T02:11:32;54.50;;;33.80;;
75486;SDS011;65009;44.762;21.516;2022-11-25T02:13:58;42.93;;;26.43;;
75486;SDS011;65009;44.762;21.516;2022-11-25T02:16:25;38.37;;;22.40;;
75486;SDS011;65009;44.762;21.516;2022-11-25T02:18:51;36.03;;;21.07;;
75486;SDS011;65009;44.762;21.516;2022-11-25T02:21:19;34.93;;;21.10;;
75486;SDS011;65009;44.762;21.516;2022-11-25T02:26:16;40.93;;;23.30;;
75486;SDS011;65009;44.762;21.516;2022-11-25T02:28:42;55.13;;;32.70;;
75486;SDS011;65009;44.762;21.516;2022-11-25T02:31:08;43.23;;;26.83;;
75486;SDS011;65009;44.762;21.516;2022-11-25T02:33:35;36.83;;;21.87;;
75486;SDS011;65009;44.762;21.516;2022-11-25T02:36:05;34.87;;;21.50;;
75486;SDS011;65009;44.762;21.516;2022-11-25T02:41:15;35.80;;;22.60;;
75486;SDS011;65009;44.762;21.516;2022-11-25T02:43:41;38.67;;;23.53;;
75486;SDS011;65009;44.762;21.516;2022-11-25T02:46:09;42.07;;;24.40;;
75486;SDS011;65009;44.762;21.516;2022-11-25T02:48:36;34.03;;;20.83;;
75486;SDS011;65009;44.762;21.516;2022-11-25T02:51:02;32.17;;;21.00;;
75486;SDS011;65009;44.762;21.516;2022-11-25T02:53:29;34.83;;;22.37;;
75486;SDS011;65009;44.762;21.516;2022-11-25T02:55:55;35.00;;;23.17;;
75486;SDS011;65009;44.762;21.516;2022-11-25T02:58:21;34.63;;;22.97;;
75486;SDS011;65009;44.762;21.516;2022-11-25T03:00:48;32.87;;;19.87;;
75486;SDS011;65009;44.762;21.516;2022-11-25T03:03:14;31.97;;;20.53;;
75486;SDS011;65009;44.762;21.516;2022-11-25T03:05:41;36.00;;;21.37;;
75486;SDS011;65009;44.762;21.516;2022-11-25T03:08:07;39.63;;;23.00;;
75486;SDS011;65009;44.762;21.516;2022-11-25T03:10:34;38.53;;;22.73;;
75486;SDS011;65009;44.762;21.516;2022-11-25T03:13:00;41.27;;;23.33;;
75486;SDS011;65009;44.762;21.516;2022-11-25T03:15:26;41.03;;;24.27;;
75486;SDS011;65009;44.762;21.516;2022-11-25T03:17:52;34.60;;;21.03;;
75486;SDS011;65009;44.762;21.516;2022-11-25T03:20:18;34.07;;;21.00;;
75486;SDS011;65009;44.762;21.516;2022-11-25T03:22:45;33.70;;;21.30;;
75486;SDS011;65009;44.762;21.516;2022-11-25T03:25:11;39.93;;;21.40;;
75486;SDS011;65009;44.762;21.516;2022-11-25T03:27:38;37.93;;;21.37;;
75486;SDS011;65009;44.762;21.516;2022-11-25T03:30:05;35.67;;;20.63;;
75486;SDS011;65009;44.762;21.516;2022-11-25T03:32:32;37.13;;;21.30;;
75486;SDS011;65009;44.762;21.516;2022-11-25T03:34:58;36.57;;;21.00;;
75486;SDS011;65009;44.762;21.516;2022-11-25T03:37:24;31.47;;;19.27;;
75486;SDS011;65009;44.762;21.516;2022-11-25T03:39:50;30.93;;;19.40;;
75486;SDS011;65009;44.762;21.516;2022-11-25T03:42:17;34.90;;;20.53;;
75486;SDS011;65009;44.762;21.516;2022-11-25T03:44:43;32.20;;;20.33;;
75486;SDS011;65009;44.762;21.516;2022-11-25T03:47:09;36.43;;;21.40;;
75486;SDS011;65009;44.762;21.516;2022-11-25T03:49:35;34.73;;;21.53;;
75486;SDS011;65009;44.762;21.516;2022-11-25T03:52:01;36.30;;;22.00;;
75486;SDS011;65009;44.762;21.516;2022-11-25T03:54:28;32.90;;;19.90;;
75486;SDS011;65009;44.762;21.516;2022-11-25T03:56:54;34.30;;;20.63;;
75486;SDS011;65009;44.762;21.516;2022-11-25T03:59:20;31.83;;;19.40;;
75486;SDS011;65009;44.762;21.516;2022-11-25T04:01:46;36.37;;;19.67;;
75486;SDS011;65009;44.762;21.516;2022-11-25T04:04:13;36.13;;;20.57;;
75486;SDS011;65009;44.762;21.516;2022-11-25T04:06:39;39.87;;;22.00;;
75486;SDS011;65009;44.762;21.516;2022-11-25T04:09:06;36.43;;;20.60;;
75486;SDS011;65009;44.762;21.516;2022-11-25T04:11:32;39.00;;;21.03;;
75486;SDS011;65009;44.762;21.516;2022-11-25T04:14:17;41.53;;;24.17;;
75486;SDS011;65009;44.762;21.516;2022-11-25T04:16:43;41.37;;;21.50;;
75486;SDS011;65009;44.762;21.516;2022-11-25T04:19:10;36.77;;;21.93;;
75486;SDS011;65009;44.762;21.516;2022-11-25T04:21:36;43.53;;;24.20;;
75486;SDS011;65009;44.762;21.516;2022-11-25T04:24:02;45.17;;;24.57;;
75486;SDS011;65009;44.762;21.516;2022-11-25T04:26:28;41.97;;;23.83;;
75486;SDS011;65009;44.762;21.516;2022-11-25T04:28:55;38.83;;;22.47;;
75486;SDS011;65009;44.762;21.516;2022-11-25T04:31:21;39.77;;;23.33;;
75486;SDS011;65009;44.762;21.516;2022-11-25T04:33:47;37.53;;;21.77;;
75486;SDS011;65009;44.762;21.516;2022-11-25T04:36:13;45.63;;;21.23;;
75486;SDS011;65009;44.762;21.516;2022-11-25T04:38:39;35.97;;;20.70;;
75486;SDS011;65009;44.762;21.516;2022-11-25T04:41:06;37.73;;;20.17;;
75486;SDS011;65009;44.762;21.516;2022-11-25T04:43:32;33.23;;;20.17;;
75486;SDS011;65009;44.762;21.516;2022-11-25T04:45:58;33.70;;;20.10;;
75486;SDS011;65009;44.762;21.516;2022-11-25T04:48:24;32.90;;;19.50;;
75486;SDS011;65009;44.762;21.516;2022-11-25T04:50:50;40.53;;;20.90;;
75486;SDS011;65009;44.762;21.516;2022-11-25T04:53:17;33.20;;;20.50;;
75486;SDS011;65009;44.762;21.516;2022-11-25T04:55:44;42.93;;;24.00;;
75486;SDS011;65009;44.762;21.516;2022-11-25T04:58:11;35.83;;;22.17;;
75486;SDS011;65009;44.762;21.516;2022-11-25T05:00:37;37.10;;;21.63;;
75486;SDS011;65009;44.762;21.516;2022-11-25T05:03:03;38.90;;;22.27;;
75486;SDS011;65009;44.762;21.516;2022-11-25T05:05:29;38.70;;;23.57;;
75486;SDS011;65009;44.762;21.516;2022-11-25T05:07:56;40.60;;;24.47;;
75486;SDS011;65009;44.762;21.516;2022-11-25T05:10:22;38.40;;;22.63;;
75486;SDS011;65009;44.762;21.516;2022-11-25T05:12:48;33.33;;;20.60;;
75486;SDS011;65009;44.762;21.516;2022-11-25T05:15:14;37.97;;;21.37;;
75486;SDS011;65009;44.762;21.516;2022-11-25T05:17:41;35.60;;;22.20;;
75486;SDS011;65009;44.762;21.516;2022-11-25T05:20:07;35.80;;;20.37;;
75486;SDS011;65009;44.762;21.516;2022-11-25T05:22:33;37.37;;;21.57;;
75486;SDS011;65009;44.762;21.516;2022-11-25T05:24:59;42.70;;;23.07;;
75486;SDS011;65009;44.762;21.516;2022-11-25T05:27:26;37.33;;;21.40;;
75486;SDS011;65009;44.762;21.516;2022-11-25T05:29:52;42.20;;;22.23;;
75486;SDS011;65009;44.762;21.516;2022-11-25T05:32:18;41.73;;;22.53;;
75486;SDS011;65009;44.762;21.516;2022-11-25T05:34:45;42.07;;;23.47;;
75486;SDS011;65009;44.762;21.516;2022-11-25T05:37:12;44.20;;;24.77;;
75486;SDS011;65009;44.762;21.516;2022-11-25T05:39:38;45.57;;;24.80;;
75486;SDS011;65009;44.762;21.516;2022-11-25T05:42:05;46.17;;;25.97;;
75486;SDS011;65009;44.762;21.516;2022-11-25T05:44:31;46.87;;;25.80;;
75486;SDS011;65009;44.762;21.516;2022-11-25T05:46:57;43.47;;;25.53;;
75486;SDS011;65009;44.762;21.516;2022-11-25T05:49:23;61.20;;;31.50;;
75486;SDS011;65009;44.762;21.516;2022-11-25T05:51:49;65.80;;;33.97;;
75486;SDS011;65009;44.762;21.516;2022-11-25T05:54:16;52.53;;;29.10;;
75486;SDS011;65009;44.762;21.516;2022-11-25T05:56:42;40.60;;;22.80;;
75486;SDS011;65009;44.762;21.516;2022-11-25T05:59:08;41.40;;;23.70;;
75486;SDS011;65009;44.762;21.516;2022-11-25T06:01:34;40.53;;;23.23;;
75486;SDS011;65009;44.762;21.516;2022-11-25T06:04:01;39.30;;;23.47;;
75486;SDS011;65009;44.762;21.516;2022-11-25T06:06:28;71.00;;;30.93;;
75486;SDS011;65009;44.762;21.516;2022-11-25T06:08:54;42.57;;;21.80;;
75486;SDS011;65009;44.762;21.516;2022-11-25T06:11:21;42.40;;;22.53;;
75486;SDS011;65009;44.762;21.516;2022-11-25T06:13:49;69.97;;;30.93;;
75486;SDS011;65009;44.762;21.516;2022-11-25T06:16:17;64.10;;;30.57;;
75486;SDS011;65009;44.762;21.516;2022-11-25T06:18:43;66.20;;;32.37;;
75486;SDS011;65009;44.762;21.516;2022-11-25T06:21:10;38.47;;;22.33;;
75486;SDS011;65009;44.762;21.516;2022-11-25T06:23:36;43.47;;;23.93;;
75486;SDS011;65009;44.762;21.516;2022-11-25T06:26:03;40.17;;;21.80;;
75486;SDS011;65009;44.762;21.516;2022-11-25T06:28:30;37.17;;;20.17;;
75486;SDS011;65009;44.762;21.516;2022-11-25T06:31:02;36.23;;;19.50;;
75486;SDS011;65009;44.762;21.516;2022-11-25T06:33:28;40.28;;;20.90;;
75486;SDS011;65009;44.762;21.516;2022-11-25T06:35:55;41.73;;;21.40;;
75486;SDS011;65009;44.762;21.516;2022-11-25T06:38:21;37.67;;;20.57;;
75486;SDS011;65009;44.762;21.516;2022-11-25T06:40:47;45.67;;;25.27;;
75486;SDS011;65009;44.762;21.516;2022-11-25T06:43:13;38.67;;;21.77;;
75486;SDS011;65009;44.762;21.516;2022-11-25T06:45:40;41.13;;;23.13;;
75486;SDS011;65009;44.762;21.516;2022-11-25T06:48:06;40.27;;;22.90;;
75486;SDS011;65009;44.762;21.516;2022-11-25T06:50:32;38.00;;;21.40;;
75486;SDS011;65009;44.762;21.516;2022-11-25T06:52:59;40.00;;;23.00;;
75486;SDS011;65009;44.762;21.516;2022-11-25T06:55:25;40.97;;;22.80;;
75486;SDS011;65009;44.762;21.516;2022-11-25T06:57:52;41.77;;;23.97;;
75486;SDS011;65009;44.762;21.516;2022-11-25T07:00:18;45.90;;;24.77;;
75486;SDS011;65009;44.762;21.516;2022-11-25T07:02:44;38.53;;;22.27;;
75486;SDS011;65009;44.762;21.516;2022-11-25T07:05:11;44.53;;;24.37;;
75486;SDS011;65009;44.762;21.516;2022-11-25T07:07:37;52.40;;;27.30;;
75486;SDS011;65009;44.762;21.516;2022-11-25T07:10:03;59.40;;;30.53;;
75486;SDS011;65009;44.762;21.516;2022-11-25T07:12:30;68.17;;;36.47;;
75486;SDS011;65009;44.762;21.516;2022-11-25T07:14:56;98.90;;;50.47;;
75486;SDS011;65009;44.762;21.516;2022-11-25T07:17:22;109.77;;;58.37;;
75486;SDS011;65009;44.762;21.516;2022-11-25T07:19:48;129.53;;;68.63;;
75486;SDS011;65009;44.762;21.516;2022-11-25T07:22:14;97.07;;;47.27;;
75486;SDS011;65009;44.762;21.516;2022-11-25T07:24:40;114.80;;;56.20;;
75486;SDS011;65009;44.762;21.516;2022-11-25T07:27:07;163.00;;;82.00;;
75486;SDS011;65009;44.762;21.516;2022-11-25T07:29:33;145.40;;;70.93;;
75486;SDS011;65009;44.762;21.516;2022-11-25T07:32:02;72.57;;;39.30;;
75486;SDS011;65009;44.762;21.516;2022-11-25T07:34:28;65.87;;;35.67;;
75486;SDS011;65009;44.762;21.516;2022-11-25T07:36:55;80.53;;;40.80;;
75486;SDS011;65009;44.762;21.516;2022-11-25T07:39:21;69.33;;;36.97;;
75486;SDS011;65009;44.762;21.516;2022-11-25T07:41:49;81.27;;;43.47;;
75486;SDS011;65009;44.762;21.516;2022-11-25T07:44:15;87.30;;;45.00;;
75486;SDS011;65009;44.762;21.516;2022-11-25T07:46:42;76.43;;;40.83;;
75486;SDS011;65009;44.762;21.516;2022-11-25T07:49:12;62.00;;;35.27;;
75486;SDS011;65009;44.762;21.516;2022-11-25T07:51:39;106.80;;;59.27;;
75486;SDS011;65009;44.762;21.516;2022-11-25T07:54:08;89.23;;;49.53;;
75486;SDS011;65009;44.762;21.516;2022-11-25T07:56:35;73.40;;;44.43;;
75486;SDS011;65009;44.762;21.516;2022-11-25T07:59:01;73.30;;;41.90;;
75486;SDS011;65009;44.762;21.516;2022-11-25T08:01:28;84.10;;;48.13;;
75486;SDS011;65009;44.762;21.516;2022-11-25T08:03:54;120.23;;;62.27;;
75486;SDS011;65009;44.762;21.516;2022-11-25T08:06:22;63.63;;;34.60;;
75486;SDS011;65009;44.762;21.516;2022-11-25T08:08:48;71.67;;;40.77;;
75486;SDS011;65009;44.762;21.516;2022-11-25T08:11:17;90.07;;;49.33;;
75486;SDS011;65009;44.762;21.516;2022-11-25T08:13:44;69.77;;;37.03;;
75486;SDS011;65009;44.762;21.516;2022-11-25T08:16:10;59.30;;;31.93;;
75486;SDS011;65009;44.762;21.516;2022-11-25T08:18:37;70.57;;;36.30;;
75486;SDS011;65009;44.762;21.516;2022-11-25T08:21:05;78.27;;;44.73;;
75486;SDS011;65009;44.762;21.516;2022-11-25T08:23:32;49.93;;;30.10;;
75486;SDS011;65009;44.762;21.516;2022-11-25T08:26:03;46.03;;;27.73;;
75486;SDS011;65009;44.762;21.516;2022-11-25T08:28:29;50.03;;;29.80;;
75486;SDS011;65009;44.762;21.516;2022-11-25T08:31:08;41.47;;;25.43;;
75486;SDS011;65009;44.762;21.516;2022-11-25T08:33:35;47.03;;;28.13;;
75486;SDS011;65009;44.762;21.516;2022-11-25T08:36:01;45.40;;;26.47;;
75486;SDS011;65009;44.762;21.516;2022-11-25T08:38:28;52.93;;;32.10;;
75486;SDS011;65009;44.762;21.516;2022-11-25T08:40:54;50.57;;;30.93;;
75486;SDS011;65009;44.762;21.516;2022-11-25T08:43:21;47.80;;;27.20;;
75486;SDS011;65009;44.762;21.516;2022-11-25T08:45:47;41.13;;;24.97;;
75486;SDS011;65009;44.762;21.516;2022-11-25T08:48:14;38.67;;;23.93;;
75486;SDS011;65009;44.762;21.516;2022-11-25T08:50:43;46.17;;;27.43;;
75486;SDS011;65009;44.762;21.516;2022-11-25T08:53:10;43.10;;;25.27;;
75486;SDS011;65009;44.762;21.516;2022-11-25T08:55:36;39.03;;;22.00;;
75486;SDS011;65009;44.762;21.516;2022-11-25T08:58:03;43.07;;;24.00;;
75486;SDS011;65009;44.762;21.516;2022-11-25T09:00:34;52.53;;;28.20;;
75486;SDS011;65009;44.762;21.516;2022-11-25T09:03:00;41.83;;;22.93;;
75486;SDS011;65009;44.762;21.516;2022-11-25T09:05:26;41.63;;;22.73;;
75486;SDS011;65009;44.762;21.516;2022-11-25T09:07:52;40.90;;;24.43;;
75486;SDS011;65009;44.762;21.516;2022-11-25T09:10:18;53.93;;;28.10;;
75486;SDS011;65009;44.762;21.516;2022-11-25T09:12:45;51.77;;;27.00;;
75486;SDS011;65009;44.762;21.516;2022-11-25T09:15:11;55.57;;;27.10;;
75486;SDS011;65009;44.762;21.516;2022-11-25T09:17:37;53.07;;;28.60;;
75486;SDS011;65009;44.762;21.516;2022-11-25T09:20:03;49.27;;;25.47;;
75486;SDS011;65009;44.762;21.516;2022-11-25T09:22:31;39.00;;;22.53;;
75486;SDS011;65009;44.762;21.516;2022-11-25T09:24:57;42.30;;;23.20;;
75486;SDS011;65009;44.762;21.516;2022-11-25T09:27:23;42.70;;;22.57;;
75486;SDS011;65009;44.762;21.516;2022-11-25T09:29:49;41.67;;;23.20;;
75486;SDS011;65009;44.762;21.516;2022-11-25T09:32:15;39.20;;;22.90;;
75486;SDS011;65009;44.762;21.516;2022-11-25T09:34:42;42.57;;;23.07;;
75486;SDS011;65009;44.762;21.516;2022-11-25T09:37:09;44.03;;;24.87;;
75486;SDS011;65009;44.762;21.516;2022-11-25T09:39:36;51.67;;;25.30;;
75486;SDS011;65009;44.762;21.516;2022-11-25T09:44:54;58.00;;;29.30;;
75486;SDS011;65009;44.762;21.516;2022-11-25T09:53:05;48.00;;;28.63;;
75486;SDS011;65009;44.762;21.516;2022-11-25T09:55:40;51.67;;;30.73;;
75486;SDS011;65009;44.762;21.516;2022-11-25T09:58:14;56.47;;;29.75;;
75486;SDS011;65009;44.762;21.516;2022-11-25T10:00:46;61.33;;;29.97;;
75486;SDS011;65009;44.762;21.516;2022-11-25T10:05:44;45.47;;;26.03;;
75486;SDS011;65009;44.762;21.516;2022-11-25T10:08:13;42.90;;;26.47;;
75486;SDS011;65009;44.762;21.516;2022-11-25T10:10:45;40.40;;;24.30;;
75486;SDS011;65009;44.762;21.516;2022-11-25T10:13:55;40.43;;;24.77;;
75486;SDS011;65009;44.762;21.516;2022-11-25T10:16:02;41.83;;;25.03;;
75486;SDS011;65009;44.762;21.516;2022-11-25T10:18:38;40.33;;;24.83;;
75486;SDS011;65009;44.762;21.516;2022-11-25T10:21:04;48.40;;;27.53;;
75486;SDS011;65009;44.762;21.516;2022-11-25T10:23:32;43.27;;;25.23;;
75486;SDS011;65009;44.762;21.516;2022-11-25T10:26:10;42.63;;;25.40;;
75486;SDS011;65009;44.762;21.516;2022-11-25T10:28:37;42.60;;;24.43;;
75486;SDS011;65009;44.762;21.516;2022-11-25T10:31:16;43.97;;;25.93;;
75486;SDS011;65009;44.762;21.516;2022-11-25T10:33:55;35.63;;;21.80;;
75486;SDS011;65009;44.762;21.516;2022-11-25T10:36:28;28.67;;;19.37;;
75486;SDS011;65009;44.762;21.516;2022-11-25T10:38:57;31.87;;;21.60;;
75486;SDS011;65009;44.762;21.516;2022-11-25T10:41:25;38.57;;;21.17;;
75486;SDS011;65009;44.762;21.516;2022-11-25T10:43:53;35.57;;;22.73;;
75486;SDS011;65009;44.762;21.516;2022-11-25T10:48:53;36.10;;;23.33;;
75486;SDS011;65009;44.762;21.516;2022-11-25T10:51:30;36.00;;;23.60;;
75486;SDS011;65009;44.762;21.516;2022-11-25T10:54:07;36.95;;;23.70;;
75486;SDS011;65009;44.762;21.516;2022-11-25T10:59:22;39.60;;;23.83;;
75486;SDS011;65009;44.762;21.516;2022-11-25T11:01:52;40.70;;;25.90;;
75486;SDS011;65009;44.762;21.516;2022-11-25T11:04:19;47.73;;;26.60;;
75486;SDS011;65009;44.762;21.516;2022-11-25T11:06:46;42.57;;;24.73;;
75486;SDS011;65009;44.762;21.516;2022-11-25T11:11:57;40.55;;;20.83;;
75486;SDS011;65009;44.762;21.516;2022-11-25T11:14:31;35.00;;;21.83;;
75486;SDS011;65009;44.762;21.516;2022-11-25T11:16:58;30.95;;;21.17;;
75486;SDS011;65009;44.762;21.516;2022-11-25T11:19:25;33.85;;;21.90;;
75486;SDS011;65009;44.762;21.516;2022-11-25T11:21:52;30.90;;;20.60;;
75486;SDS011;65009;44.762;21.516;2022-11-25T11:26:59;34.30;;;20.63;;
75486;SDS011;65009;44.762;21.516;2022-11-25T11:29:26;33.15;;;20.02;;
75486;SDS011;65009;44.762;21.516;2022-11-25T11:31:55;28.90;;;20.10;;
75486;SDS011;65009;44.762;21.516;2022-11-25T11:34:39;35.80;;;19.85;;
75486;SDS011;65009;44.762;21.516;2022-11-25T11:37:30;33.88;;;21.90;;
75486;SDS011;65009;44.762;21.516;2022-11-25T11:48:25;27.90;;;17.98;;
75486;SDS011;65009;44.762;21.516;2022-11-25T11:51:06;31.10;;;19.77;;
75486;SDS011;65009;44.762;21.516;2022-11-25T12:03:56;26.48;;;19.65;;
75486;SDS011;65009;44.762;21.516;2022-11-25T12:06:23;31.95;;;21.10;;
75486;SDS011;65009;44.762;21.516;2022-11-25T12:08:53;34.23;;;22.73;;
75486;SDS011;65009;44.762;21.516;2022-11-25T12:11:24;30.85;;;18.52;;
75486;SDS011;65009;44.762;21.516;2022-11-25T12:13:59;26.90;;;17.97;;
75486;SDS011;65009;44.762;21.516;2022-11-25T12:16:30;26.87;;;18.87;;
75486;SDS011;65009;44.762;21.516;2022-11-25T12:18:59;32.67;;;19.87;;
75486;SDS011;65009;44.762;21.516;2022-11-25T12:30:05;38.43;;;24.63;;
75486;SDS011;65009;44.762;21.516;2022-11-25T12:37:43;40.67;;;24.73;;
75486;SDS011;65009;44.762;21.516;2022-11-25T12:40:17;41.83;;;25.27;;
75486;SDS011;65009;44.762;21.516;2022-11-25T12:42:46;41.80;;;24.33;;
75486;SDS011;65009;44.762;21.516;2022-11-25T12:47:40;44.40;;;25.60;;
75486;SDS011;65009;44.762;21.516;2022-11-25T12:50:08;43.87;;;24.57;;
75486;SDS011;65009;44.762;21.516;2022-11-25T12:52:45;44.83;;;25.17;;
75486;SDS011;65009;44.762;21.516;2022-11-25T12:55:18;42.87;;;27.23;;
75486;SDS011;65009;44.762;21.516;2022-11-25T13:18:03;41.60;;;25.40;;
75486;SDS011;65009;44.762;21.516;2022-11-25T13:20:33;42.60;;;25.47;;
75486;SDS011;65009;44.762;21.516;2022-11-25T13:25:32;40.83;;;25.57;;
75486;SDS011;65009;44.762;21.516;2022-11-25T13:27:59;36.03;;;24.07;;
75486;SDS011;65009;44.762;21.516;2022-11-25T13:30:43;40.57;;;24.07;;
75486;SDS011;65009;44.762;21.516;2022-11-25T13:40:59;37.43;;;24.43;;
75486;SDS011;65009;44.762;21.516;2022-11-25T13:43:25;35.37;;;23.90;;
75486;SDS011;65009;44.762;21.516;2022-11-25T13:45:52;36.20;;;24.30;;
75486;SDS011;65009;44.762;21.516;2022-11-25T13:48:26;36.43;;;24.53;;
75486;SDS011;65009;44.762;21.516;2022-11-25T13:51:11;39.60;;;26.13;;
75486;SDS011;65009;44.762;21.516;2022-11-25T13:53:38;42.50;;;27.60;;
75486;SDS011;65009;44.762;21.516;2022-11-25T13:56:38;37.33;;;25.63;;
75486;SDS011;65009;44.762;21.516;2022-11-25T14:01:23;37.10;;;24.60;;
75486;SDS011;65009;44.762;21.516;2022-11-25T14:03:52;43.43;;;26.53;;
75486;SDS011;65009;44.762;21.516;2022-11-25T14:11:33;39.13;;;24.75;;
75486;SDS011;65009;44.762;21.516;2022-11-25T14:19:05;38.10;;;23.77;;
75486;SDS011;65009;44.762;21.516;2022-11-25T14:21:49;43.37;;;25.70;;
75486;SDS011;65009;44.762;21.516;2022-11-25T14:26:50;47.67;;;29.67;;
75486;SDS011;65009;44.762;21.516;2022-11-25T14:29:27;43.23;;;28.70;;
75486;SDS011;65009;44.762;21.516;2022-11-25T14:32:01;47.20;;;28.67;;
75486;SDS011;65009;44.762;21.516;2022-11-25T14:34:32;46.70;;;29.33;;
75486;SDS011;65009;44.762;21.516;2022-11-25T14:39:31;49.13;;;30.83;;
75486;SDS011;65009;44.762;21.516;2022-11-25T14:42:04;51.03;;;29.20;;
75486;SDS011;65009;44.762;21.516;2022-11-25T14:45:05;44.00;;;29.43;;
75486;SDS011;65009;44.762;21.516;2022-11-25T14:49:52;49.93;;;32.27;;
75486;SDS011;65009;44.762;21.516;2022-11-25T14:52:34;65.53;;;41.97;;
75486;SDS011;65009;44.762;21.516;2022-11-25T14:55:01;134.55;;;73.63;;
75486;SDS011;65009;44.762;21.516;2022-11-25T14:57:29;101.13;;;56.30;;
75486;SDS011;65009;44.762;21.516;2022-11-25T14:59:57;106.23;;;64.10;;
75486;SDS011;65009;44.762;21.516;2022-11-25T15:02:28;110.83;;;67.07;;
75486;SDS011;65009;44.762;21.516;2022-11-25T15:05:01;110.80;;;68.40;;
75486;SDS011;65009;44.762;21.516;2022-11-25T15:07:27;137.53;;;83.43;;
75486;SDS011;65009;44.762;21.516;2022-11-25T15:09:53;106.97;;;63.87;;
75486;SDS011;65009;44.762;21.516;2022-11-25T15:12:20;80.40;;;50.37;;
75486;SDS011;65009;44.762;21.516;2022-11-25T15:14:51;104.53;;;63.00;;
75486;SDS011;65009;44.762;21.516;2022-11-25T15:17:28;98.37;;;57.43;;
75486;SDS011;65009;44.762;21.516;2022-11-25T15:19:55;92.53;;;54.87;;
75486;SDS011;65009;44.762;21.516;2022-11-25T15:22:22;82.67;;;51.20;;
75486;SDS011;65009;44.762;21.516;2022-11-25T15:24:48;82.57;;;49.47;;
75486;SDS011;65009;44.762;21.516;2022-11-25T15:27:24;108.90;;;61.90;;
75486;SDS011;65009;44.762;21.516;2022-11-25T15:29:51;97.97;;;55.77;;
75486;SDS011;65009;44.762;21.516;2022-11-25T15:32:25;102.33;;;60.43;;
75486;SDS011;65009;44.762;21.516;2022-11-25T15:34:52;126.63;;;73.73;;
75486;SDS011;65009;44.762;21.516;2022-11-25T15:37:19;151.90;;;92.93;;
75486;SDS011;65009;44.762;21.516;2022-11-25T15:39:45;153.53;;;90.53;;
75486;SDS011;65009;44.762;21.516;2022-11-25T15:44:39;154.43;;;93.40;;
75486;SDS011;65009;44.762;21.516;2022-11-25T15:47:06;171.67;;;106.97;;
75486;SDS011;65009;44.762;21.516;2022-11-25T15:49:39;179.47;;;107.37;;
75486;SDS011;65009;44.762;21.516;2022-11-25T15:52:07;199.90;;;118.43;;
75486;SDS011;65009;44.762;21.516;2022-11-25T15:54:52;154.93;;;94.10;;
75486;SDS011;65009;44.762;21.516;2022-11-25T15:57:22;128.07;;;75.87;;
75486;SDS011;65009;44.762;21.516;2022-11-25T16:00:31;201.53;;;109.17;;
75486;SDS011;65009;44.762;21.516;2022-11-25T16:05:11;170.87;;;99.53;;
75486;SDS011;65009;44.762;21.516;2022-11-25T16:10:17;155.50;;;90.40;;
75486;SDS011;65009;44.762;21.516;2022-11-25T16:12:44;135.57;;;73.73;;
75486;SDS011;65009;44.762;21.516;2022-11-25T16:15:16;143.60;;;81.77;;
75486;SDS011;65009;44.762;21.516;2022-11-25T16:17:42;139.30;;;76.27;;
75486;SDS011;65009;44.762;21.516;2022-11-25T16:20:18;161.70;;;92.23;;